Time;durP1;ratioP1;P1;durP2;ratioP2;P2;SDS_P1;SDS_P2;PMS_P1;PMS_P2;Temp;Humidity;BMP_temperature;BMP_pressure;BME280_temperature;BME280_humidity;BME280_pressure;Samples;Min_cycle;Max_cycle;Signal;HPM_P1;HPM_P2
2022/01/19 00:01:07;;;;;;;;;43.33;35.33;;;;;;;;5061100;28;12734;-80
2022/01/19 00:03:34;;;;;;;;;45.00;41.00;;;;;;;;5045101;28;11556;-79
2022/01/19 00:06:02;;;;;;;;;30.33;25.00;;;;;;;;5060162;28;8882;-79
2022/01/19 00:08:29;;;;;;;;;54.33;44.33;;;;;;;;5063529;28;11512;-79
2022/01/19 00:10:58;;;;;;;;;47.67;42.33;;;;;;;;5061044;28;8852;-79
2022/01/19 00:13:27;;;;;;;;;42.00;40.00;;;;;;;;5062059;28;11599;-79
2022/01/19 00:15:54;;;;;;;;;47.00;39.33;;;;;;;;5060820;28;11557;-79
2022/01/19 00:18:23;;;;;;;;;48.00;44.33;;;;;;;;5062650;28;8856;-79
2022/01/19 00:20:52;;;;;;;;;43.00;41.33;;;;;;;;5065741;28;8852;-80
2022/01/19 00:23:19;;;;;;;;;43.33;42.00;;;;;;;;5073376;28;8911;-80
2022/01/19 00:25:48;;;;;;;;;43.00;39.33;;;;;;;;5066926;28;8852;-79
2022/01/19 00:28:16;;;;;;;;;53.00;45.33;;;;;;;;5064707;28;11586;-79
2022/01/19 00:30:45;;;;;;;;;42.00;33.00;;;;;;;;5048662;28;8824;-79
2022/01/19 00:33:13;;;;;;;;;46.33;41.33;;;;;;;;5065666;28;11567;-80
2022/01/19 00:35:40;;;;;;;;;45.00;41.00;;;;;;;;5076591;28;11547;-80
2022/01/19 00:38:09;;;;;;;;;46.00;41.50;;;;;;;;5048596;28;11570;-80
2022/01/19 00:40:37;;;;;;;;;57.00;46.00;;;;;;;;5065258;28;11630;-80
2022/01/19 00:43:05;;;;;;;;;44.33;39.33;;;;;;;;5066105;28;11691;-79
2022/01/19 00:45:32;;;;;;;;;50.33;44.67;;;;;;;;5064196;28;11611;-80
2022/01/19 00:48:01;;;;;;;;;47.75;43.50;;;;;;;;5065993;28;11560;-79
2022/01/19 00:50:30;;;;;;;;;50.67;43.33;;;;;;;;5046658;28;11581;-80
2022/01/19 00:52:58;;;;;;;;;50.00;42.00;;;;;;;;5063718;28;11585;-80
2022/01/19 00:55:27;;;;;;;;;49.25;44.75;;;;;;;;5066093;28;11539;-80
2022/01/19 00:57:55;;;;;;;;;59.67;49.00;;;;;;;;5046602;28;11565;-80
2022/01/19 01:00:24;;;;;;;;;57.75;47.25;;;;;;;;5063446;28;11553;-81
2022/01/19 01:02:51;;;;;;;;;57.33;47.00;;;;;;;;5064464;28;11543;-80
2022/01/19 01:05:21;;;;;;;;;50.50;44.50;;;;;;;;5049466;28;11529;-80
2022/01/19 01:07:48;;;;;;;;;46.50;42.50;;;;;;;;5062913;28;12388;-80
2022/01/19 01:10:18;;;;;;;;;59.25;47.25;;;;;;;;5064115;28;11574;-80
2022/01/19 01:12:48;;;;;;;;;49.75;44.75;;;;;;;;5066097;28;11552;-80
2022/01/19 01:15:36;;;;;;;;;50.75;41.25;;;;;;;;5064346;28;11567;-79
2022/01/19 01:18:20;;;;;;;;;51.75;43.00;;;;;;;;5066918;28;11548;-78
2022/01/19 01:20:52;;;;;;;;;45.75;40.50;;;;;;;;5048141;28;11602;-79
2022/01/19 01:23:20;;;;;;;;;51.00;43.50;;;;;;;;5063770;28;11576;-80
2022/01/19 01:25:48;;;;;;;;;47.75;40.00;;;;;;;;5063668;28;11563;-79
2022/01/19 01:28:16;;;;;;;;;39.75;36.25;;;;;;;;5063610;28;11577;-79
2022/01/19 01:30:44;;;;;;;;;39.75;36.25;;;;;;;;5063356;28;11479;-78
2022/01/19 01:33:12;;;;;;;;;45.75;37.50;;;;;;;;5065984;28;11597;-80
2022/01/19 01:35:40;;;;;;;;;35.50;32.50;;;;;;;;5064545;28;11569;-79
2022/01/19 01:38:09;;;;;;;;;40.50;37.00;;;;;;;;5045811;28;11574;-80
2022/01/19 01:40:38;;;;;;;;;43.25;39.50;;;;;;;;5067214;28;11668;-79
2022/01/19 01:43:08;;;;;;;;;39.25;35.25;;;;;;;;5062803;28;11556;-79
2022/01/19 01:45:39;;;;;;;;;42.50;34.25;;;;;;;;5064066;28;11705;-79
2022/01/19 01:48:11;;;;;;;;;34.75;32.50;;;;;;;;5065217;28;12338;-79
2022/01/19 01:53:27;;;;;;;;;42.00;33.75;;;;;;;;5060014;28;11546;-80
2022/01/19 01:55:55;;;;;;;;;45.00;39.00;;;;;;;;5061835;28;11622;-80
2022/01/19 01:58:23;;;;;;;;;41.25;37.00;;;;;;;;5065321;28;12495;-79
2022/01/19 02:00:51;;;;;;;;;40.50;35.50;;;;;;;;5045500;28;11538;-79
2022/01/19 02:03:18;;;;;;;;;43.50;38.00;;;;;;;;5064200;28;11591;-80
2022/01/19 02:06:05;;;;;;;;;38.25;32.75;;;;;;;;5063561;28;11585;-80
2022/01/19 02:08:40;;;;;;;;;34.25;27.00;;;;;;;;5044506;28;11580;-80
2022/01/19 02:11:31;;;;;;;;;32.50;28.00;;;;;;;;5074769;28;11634;-79
2022/01/19 02:16:53;;;;;;;;;36.25;32.00;;;;;;;;5060133;28;12279;-79
2022/01/19 02:22:06;;;;;;;;;34.75;34.00;;;;;;;;5063492;28;11536;-79
2022/01/19 02:24:42;;;;;;;;;42.25;34.50;;;;;;;;5062704;28;11759;-79
2022/01/19 02:28:54;;;;;;;;;31.25;29.50;;;;;;;;5064369;28;11530;-79
2022/01/19 02:30:34;;;;;;;;;31.25;29.50;;;;;;;;5061484;28;11558;-79
2022/01/19 02:41:14;;;;;;;;;32.75;28.50;;;;;;;;5062534;28;11529;-79
2022/01/19 02:43:45;;;;;;;;;24.75;24.00;;;;;;;;5061877;28;11659;-78
2022/01/19 02:49:16;;;;;;;;;31.25;23.50;;;;;;;;5063502;28;12268;-79
2022/01/19 02:51:44;;;;;;;;;26.75;24.00;;;;;;;;5056721;28;11605;-79
2022/01/19 02:54:14;;;;;;;;;23.00;21.75;;;;;;;;5063581;28;12315;-79
2022/01/19 02:56:44;;;;;;;;;29.00;24.75;;;;;;;;5045090;28;11648;-80
2022/01/19 02:59:17;;;;;;;;;16.00;13.00;;;;;;;;5062919;28;11574;-80
2022/01/19 03:10:01;;;;;;;;;25.75;23.75;;;;;;;;5046375;28;13359;-81
2022/01/19 03:12:28;;;;;;;;;25.75;25.75;;;;;;;;5062475;28;11695;-81
2022/01/19 03:14:56;;;;;;;;;23.00;18.00;;;;;;;;5062013;28;11580;-79
2022/01/19 03:17:23;;;;;;;;;22.25;19.75;;;;;;;;5060673;28;11642;-81
2022/01/19 03:19:53;;;;;;;;;22.00;20.75;;;;;;;;5045683;28;11591;-80
2022/01/19 03:22:26;;;;;;;;;23.00;22.50;;;;;;;;5062096;28;11570;-79
2022/01/19 03:24:53;;;;;;;;;33.75;30.75;;;;;;;;5060687;28;11506;-79
2022/01/19 03:27:22;;;;;;;;;27.50;27.50;;;;;;;;5061083;28;11630;-79
2022/01/19 03:29:50;;;;;;;;;26.25;26.25;;;;;;;;5063116;28;12318;-80
2022/01/19 03:32:17;;;;;;;;;31.00;25.00;;;;;;;;5061771;28;11546;-80
2022/01/19 03:34:44;;;;;;;;;39.50;32.25;;;;;;;;5056985;28;11532;-80
2022/01/19 03:37:12;;;;;;;;;29.50;29.50;;;;;;;;5062770;28;11573;-80
2022/01/19 03:39:39;;;;;;;;;34.25;30.50;;;;;;;;5064545;28;11642;-80
2022/01/19 03:42:07;;;;;;;;;38.25;31.75;;;;;;;;5061730;28;11572;-80
2022/01/19 03:44:36;;;;;;;;;38.25;28.75;;;;;;;;5060704;28;12346;-79
2022/01/19 03:47:05;;;;;;;;;35.00;30.75;;;;;;;;5070477;28;11573;-79
2022/01/19 03:49:34;;;;;;;;;33.75;33.25;;;;;;;;5062839;28;11534;-80
2022/01/19 03:52:04;;;;;;;;;35.00;25.50;;;;;;;;5060999;28;11701;-80
2022/01/19 03:54:35;;;;;;;;;37.75;31.50;;;;;;;;5069073;28;11643;-79
2022/01/19 03:57:03;;;;;;;;;37.50;32.75;;;;;;;;5062265;28;11582;-80
2022/01/19 03:59:30;;;;;;;;;32.25;27.50;;;;;;;;5062536;28;11575;-80
2022/01/19 04:01:59;;;;;;;;;38.75;32.25;;;;;;;;5056175;28;11589;-80
2022/01/19 04:04:37;;;;;;;;;23.75;23.50;;;;;;;;5044535;28;11649;-80
2022/01/19 04:07:09;;;;;;;;;38.50;34.75;;;;;;;;5061536;28;11544;-80
2022/01/19 04:09:38;;;;;;;;;34.25;28.25;;;;;;;;5059538;28;11570;-80
2022/01/19 04:12:07;;;;;;;;;34.50;24.50;;;;;;;;5063546;28;11548;-80
2022/01/19 04:14:34;;;;;;;;;39.25;31.50;;;;;;;;5060229;28;11553;-79
2022/01/19 04:17:05;;;;;;;;;42.00;36.75;;;;;;;;5063529;28;11536;-79
2022/01/19 04:19:40;;;;;;;;;27.00;21.50;;;;;;;;5061450;28;12428;-78
2022/01/19 04:22:09;;;;;;;;;32.00;26.50;;;;;;;;5062252;28;11543;-79
2022/01/19 04:24:37;;;;;;;;;31.25;28.00;;;;;;;;5061640;28;11543;-79
2022/01/19 04:29:56;;;;;;;;;32.00;32.00;;;;;;;;5059698;28;11529;-79
2022/01/19 04:32:31;;;;;;;;;25.75;24.50;;;;;;;;5061626;28;11476;-79
2022/01/19 04:35:02;;;;;;;;;29.25;26.00;;;;;;;;5061404;28;11572;-77
2022/01/19 04:37:45;;;;;;;;;32.75;31.50;;;;;;;;5062022;28;12335;-78
2022/01/19 05:02:43;;;;;;;;;31.00;29.00;;;;;;;;5060170;28;11520;-78
2022/01/19 05:05:19;;;;;;;;;40.50;35.25;;;;;;;;5061449;28;11665;-78
2022/01/19 05:07:55;;;;;;;;;44.50;35.00;;;;;;;;5047077;28;11552;-77
2022/01/19 05:15:53;;;;;;;;;35.00;28.25;;;;;;;;5065203;28;11540;-77
2022/01/19 05:18:20;;;;;;;;;34.75;31.25;;;;;;;;5065617;28;11571;-76
2022/01/19 05:20:49;;;;;;;;;32.50;30.25;;;;;;;;5064257;28;11555;-76
2022/01/19 05:23:17;;;;;;;;;37.50;34.00;;;;;;;;5063334;28;11562;-79
2022/01/19 05:25:44;;;;;;;;;36.50;35.75;;;;;;;;5064555;28;11551;-78
2022/01/19 05:28:12;;;;;;;;;42.00;38.50;;;;;;;;5065171;28;11550;-77
2022/01/19 05:30:39;;;;;;;;;33.75;28.00;;;;;;;;5063744;28;11497;-77
2022/01/19 05:33:07;;;;;;;;;39.50;36.75;;;;;;;;5045797;28;11570;-77
2022/01/19 05:35:34;;;;;;;;;31.50;30.50;;;;;;;;5061963;28;11599;-77
2022/01/19 05:38:03;;;;;;;;;40.00;37.50;;;;;;;;5063610;28;12398;-77
2022/01/19 05:40:30;;;;;;;;;27.00;27.00;;;;;;;;5063571;28;11642;-77
2022/01/19 05:42:58;;;;;;;;;36.00;31.00;;;;;;;;5065519;28;11654;-76
2022/01/19 05:45:25;;;;;;;;;41.75;35.75;;;;;;;;5062952;28;11752;-79
2022/01/19 05:47:53;;;;;;;;;29.25;27.50;;;;;;;;5064686;28;11720;-78
2022/01/19 05:50:20;;;;;;;;;37.00;32.50;;;;;;;;5062615;28;11553;-79
2022/01/19 05:52:48;;;;;;;;;27.00;24.50;;;;;;;;5025319;28;11569;-78
2022/01/19 05:55:17;;;;;;;;;30.25;28.50;;;;;;;;5061319;28;11595;-78
2022/01/19 05:57:44;;;;;;;;;41.75;31.75;;;;;;;;5060632;28;12330;-78
2022/01/19 06:00:13;;;;;;;;;35.50;33.25;;;;;;;;5059770;28;11553;-79
2022/01/19 06:02:40;;;;;;;;;27.25;26.75;;;;;;;;5058737;28;11617;-78
2022/01/19 06:05:09;;;;;;;;;33.75;27.75;;;;;;;;5062230;28;11500;-79
2022/01/19 06:07:42;;;;;;;;;33.25;30.25;;;;;;;;5060873;28;11716;-79
2022/01/19 06:10:42;;;;;;;;;35.50;31.75;;;;;;;;5062621;28;11508;-77
2022/01/19 06:13:02;;;;;;;;;16.25;16.25;;;;;;;;5058403;28;11533;-75
2022/01/19 06:15:29;;;;;;;;;47.75;39.75;;;;;;;;5060453;28;11559;-77
2022/01/19 06:17:57;;;;;;;;;33.25;31.50;;;;;;;;5059215;28;11598;-78
2022/01/19 06:20:24;;;;;;;;;34.50;29.75;;;;;;;;5057913;28;11788;-77
2022/01/19 06:22:52;;;;;;;;;29.50;29.50;;;;;;;;5039907;28;11610;-79
2022/01/19 06:25:20;;;;;;;;;32.00;26.25;;;;;;;;5040319;28;12902;-88
2022/01/19 06:27:47;;;;;;;;;29.75;29.75;;;;;;;;5060937;28;11551;-82
2022/01/19 06:30:16;;;;;;;;;39.25;33.75;;;;;;;;5058609;28;11570;-81
2022/01/19 06:32:44;;;;;;;;;30.75;30.75;;;;;;;;5062454;28;12522;-77
2022/01/19 06:35:11;;;;;;;;;38.50;35.00;;;;;;;;5061891;28;11683;-83
2022/01/19 06:37:39;;;;;;;;;33.75;29.50;;;;;;;;5063503;28;11682;-79
2022/01/19 06:40:08;;;;;;;;;41.75;39.25;;;;;;;;5064983;28;11586;-82
2022/01/19 06:42:36;;;;;;;;;33.25;32.00;;;;;;;;5062676;28;11606;-79
2022/01/19 06:45:04;;;;;;;;;34.75;30.25;;;;;;;;5063065;28;11533;-80
2022/01/19 06:47:33;;;;;;;;;38.25;30.00;;;;;;;;5062779;28;11625;-80
2022/01/19 06:50:01;;;;;;;;;34.50;29.25;;;;;;;;5065037;28;11589;-79
2022/01/19 06:52:28;;;;;;;;;33.25;30.75;;;;;;;;5062453;28;11586;-79
2022/01/19 06:54:56;;;;;;;;;39.00;38.50;;;;;;;;5063421;28;11612;-80
2022/01/19 06:57:23;;;;;;;;;35.75;32.00;;;;;;;;5064411;28;11584;-82
2022/01/19 06:59:51;;;;;;;;;44.25;36.00;;;;;;;;5060254;28;11611;-80
2022/01/19 07:02:19;;;;;;;;;45.00;37.25;;;;;;;;5060969;28;11647;-81
2022/01/19 07:04:49;;;;;;;;;38.75;33.50;;;;;;;;5044322;28;12433;-82
2022/01/19 07:07:17;;;;;;;;;42.75;41.00;;;;;;;;5062091;28;11542;-76
2022/01/19 07:09:45;;;;;;;;;42.50;38.25;;;;;;;;5063209;28;11552;-80
2022/01/19 07:12:13;;;;;;;;;56.00;45.25;;;;;;;;5062613;28;11550;-80
2022/01/19 07:14:40;;;;;;;;;47.75;43.00;;;;;;;;5062730;28;11567;-82
2022/01/19 07:17:07;;;;;;;;;45.00;43.00;;;;;;;;5061515;28;11583;-81
2022/01/19 07:19:35;;;;;;;;;55.50;40.75;;;;;;;;5045424;28;11539;-82
2022/01/19 07:22:04;;;;;;;;;37.75;33.50;;;;;;;;5062341;28;11570;-77
2022/01/19 07:24:32;;;;;;;;;39.25;36.50;;;;;;;;5062247;28;11554;-76
2022/01/19 07:26:59;;;;;;;;;37.25;33.75;;;;;;;;5062968;28;11521;-76
2022/01/19 07:29:27;;;;;;;;;42.25;39.50;;;;;;;;5044853;28;12474;-75
2022/01/19 07:31:56;;;;;;;;;54.50;43.50;;;;;;;;5062794;28;11515;-78
2022/01/19 07:34:23;;;;;;;;;50.75;42.00;;;;;;;;5052091;28;11558;-74
2022/01/19 07:36:50;;;;;;;;;45.50;42.25;;;;;;;;5064048;28;11574;-78
2022/01/19 07:39:19;;;;;;;;;59.00;47.50;;;;;;;;5059192;28;11570;-77
2022/01/19 07:41:47;;;;;;;;;40.50;39.25;;;;;;;;5062161;28;11606;-77
2022/01/19 07:44:14;;;;;;;;;49.00;44.50;;;;;;;;5065561;28;11724;-77
2022/01/19 07:46:42;;;;;;;;;48.75;41.25;;;;;;;;5062734;28;11609;-78
2022/01/19 07:49:09;;;;;;;;;39.75;38.00;;;;;;;;5043575;28;11555;-76
2022/01/19 07:51:37;;;;;;;;;43.50;41.00;;;;;;;;5042480;28;11571;-78
2022/01/19 07:54:04;;;;;;;;;51.25;41.75;;;;;;;;5061708;28;12380;-76
2022/01/19 07:56:33;;;;;;;;;42.75;41.00;;;;;;;;5061463;28;11566;-76
2022/01/19 07:59:00;;;;;;;;;46.25;41.75;;;;;;;;5063028;28;11578;-76
2022/01/19 08:01:30;;;;;;;;;48.25;43.00;;;;;;;;5061916;28;11531;-77
2022/01/19 08:03:58;;;;;;;;;45.00;40.50;;;;;;;;5061266;28;11646;-76
2022/01/19 08:06:26;;;;;;;;;47.50;40.50;;;;;;;;5061045;28;11564;-79
2022/01/19 08:36:11;;;;;;;;;34.75;31.50;;;;;;;;5081706;27;11663;-79
2022/01/19 08:38:40;;;;;;;;;40.75;32.25;;;;;;;;5074033;28;11568;-77
2022/01/19 08:41:08;;;;;;;;;43.50;39.00;;;;;;;;5074844;28;11574;-80
2022/01/19 08:43:35;;;;;;;;;45.25;38.50;;;;;;;;5084967;28;11615;-89
2022/01/19 08:46:03;;;;;;;;;34.00;34.00;;;;;;;;5084411;28;11556;-75
2022/01/19 08:48:30;;;;;;;;;32.50;30.75;;;;;;;;5083861;28;12295;-78
2022/01/19 08:50:58;;;;;;;;;53.25;38.00;;;;;;;;5084409;28;11530;-83
2022/01/19 08:53:27;;;;;;;;;43.50;40.50;;;;;;;;5083207;28;12426;-77
2022/01/19 08:55:54;;;;;;;;;38.75;32.00;;;;;;;;5088315;28;11629;-80
2022/01/19 08:58:22;;;;;;;;;47.25;42.50;;;;;;;;5086035;28;11693;-80
2022/01/19 09:00:49;;;;;;;;;56.00;45.50;;;;;;;;5086981;28;11472;-82
2022/01/19 09:03:22;;;;;;;;;52.25;47.50;;;;;;;;5086049;28;12368;-80
2022/01/19 09:05:49;;;;;;;;;54.00;42.00;;;;;;;;5086210;28;12321;-77
2022/01/19 09:08:17;;;;;;;;;47.75;42.00;;;;;;;;5086049;28;11536;-79
2022/01/19 09:10:50;;;;;;;;;54.25;43.75;;;;;;;;5090624;28;11560;-81
2022/01/19 09:13:17;;;;;;;;;44.00;40.50;;;;;;;;5086597;28;11563;-79
2022/01/19 09:15:45;;;;;;;;;52.25;42.25;;;;;;;;5084954;28;11560;-80
2022/01/19 09:18:12;;;;;;;;;57.00;44.00;;;;;;;;5087632;28;11573;-76
2022/01/19 09:20:39;;;;;;;;;50.50;44.25;;;;;;;;5084649;28;11583;-79
2022/01/19 09:23:06;;;;;;;;;44.50;37.00;;;;;;;;5086045;28;11626;-80
2022/01/19 09:25:36;;;;;;;;;47.25;41.25;;;;;;;;5085989;28;12326;-77
2022/01/19 09:28:05;;;;;;;;;49.50;41.75;;;;;;;;5098198;28;11562;-79
2022/01/19 09:30:32;;;;;;;;;46.75;44.00;;;;;;;;5085501;28;11513;-80
2022/01/19 09:33:09;;;;;;;;;53.75;45.00;;;;;;;;5066676;28;11611;-79
2022/01/19 09:35:52;;;;;;;;;58.00;46.25;;;;;;;;5086698;28;11521;-80
2022/01/19 09:38:20;;;;;;;;;51.00;44.25;;;;;;;;5082493;28;11647;-82
2022/01/19 09:40:47;;;;;;;;;43.75;42.00;;;;;;;;5086635;28;11590;-82
2022/01/19 09:43:21;;;;;;;;;52.25;43.25;;;;;;;;5072515;28;11577;-82
2022/01/19 09:45:49;;;;;;;;;53.75;41.75;;;;;;;;5085091;28;11567;-83
2022/01/19 09:48:16;;;;;;;;;59.50;43.25;;;;;;;;5087022;28;11585;-83
2022/01/19 09:50:43;;;;;;;;;50.50;43.00;;;;;;;;5086750;28;11543;-84
2022/01/19 09:53:11;;;;;;;;;51.00;43.75;;;;;;;;5087401;28;11595;-80
2022/01/19 09:55:40;;;;;;;;;51.75;42.25;;;;;;;;5091045;28;11541;-78
2022/01/19 09:58:09;;;;;;;;;48.00;41.25;;;;;;;;5089938;28;11626;-83
2022/01/19 10:00:38;;;;;;;;;50.00;43.75;;;;;;;;5094905;27;11478;-82
2022/01/19 10:03:18;;;;;;;;;41.75;39.25;;;;;;;;5087721;28;11639;-83
2022/01/19 10:05:56;;;;;;;;;50.50;42.50;;;;;;;;5086758;28;11584;-84
2022/01/19 10:08:31;;;;;;;;;38.50;37.75;;;;;;;;5084753;28;11518;-85
2022/01/19 10:11:07;;;;;;;;;46.50;41.00;;;;;;;;5087099;28;11548;-84
2022/01/19 10:19:19;;;;;;;;;49.00;44.25;;;;;;;;5081168;28;12191;-76
2022/01/19 10:22:08;;;;;;;;;44.75;38.50;;;;;;;;5084611;28;11588;-82
2022/01/19 10:24:38;;;;;;;;;40.25;38.50;;;;;;;;5072851;28;11587;-77
2022/01/19 10:27:21;;;;;;;;;49.50;41.50;;;;;;;;5085088;28;11557;-76
2022/01/19 10:29:50;;;;;;;;;51.00;43.50;;;;;;;;5085681;28;11590;-84
2022/01/19 10:32:21;;;;;;;;;39.75;34.75;;;;;;;;5086073;28;11662;-83
2022/01/19 10:34:50;;;;;;;;;47.50;41.25;;;;;;;;5092720;28;11546;-83
2022/01/19 10:37:24;;;;;;;;;49.50;36.50;;;;;;;;5086048;28;11583;-84
2022/01/19 10:39:54;;;;;;;;;43.50;40.00;;;;;;;;5085914;28;11576;-83
2022/01/19 10:42:23;;;;;;;;;46.25;41.00;;;;;;;;5073169;28;11594;-84
2022/01/19 10:44:52;;;;;;;;;49.50;41.50;;;;;;;;5086282;28;11546;-84
2022/01/19 10:47:42;;;;;;;;;50.00;41.75;;;;;;;;5085522;28;11579;-83
2022/01/19 10:50:10;;;;;;;;;40.75;38.00;;;;;;;;5085471;28;12387;-85
2022/01/19 10:52:40;;;;;;;;;44.25;39.00;;;;;;;;5085623;28;11617;-82
2022/01/19 10:55:10;;;;;;;;;50.25;42.25;;;;;;;;5085792;28;11598;-86
2022/01/19 10:57:50;;;;;;;;;44.00;36.25;;;;;;;;5085486;28;11563;-84
2022/01/19 11:00:24;;;;;;;;;40.75;38.00;;;;;;;;5084980;28;11600;-85
2022/01/19 11:02:55;;;;;;;;;43.00;35.75;;;;;;;;5085827;28;11545;-83
2022/01/19 11:05:40;;;;;;;;;45.00;40.00;;;;;;;;5085391;28;12107;-83
2022/01/19 11:08:08;;;;;;;;;35.25;33.75;;;;;;;;5089018;28;11569;-84
2022/01/19 11:10:36;;;;;;;;;44.25;41.75;;;;;;;;5092057;28;11565;-84
2022/01/19 11:13:06;;;;;;;;;40.25;36.00;;;;;;;;5067066;28;11586;-83
2022/01/19 11:15:34;;;;;;;;;36.50;32.25;;;;;;;;5085005;28;11522;-86
2022/01/19 11:18:03;;;;;;;;;37.50;31.00;;;;;;;;5085119;28;11569;-84
2022/01/19 11:20:35;;;;;;;;;38.25;35.00;;;;;;;;5085392;28;11566;-84
2022/01/19 11:23:16;;;;;;;;;31.50;28.75;;;;;;;;5086815;28;11547;-84
2022/01/19 11:25:51;;;;;;;;;43.75;35.00;;;;;;;;5090471;28;11568;-84
2022/01/19 11:28:33;;;;;;;;;40.00;36.50;;;;;;;;5084848;28;11587;-85
2022/01/19 11:31:01;;;;;;;;;42.25;38.00;;;;;;;;5055412;28;11506;-85
2022/01/19 11:33:31;;;;;;;;;41.25;35.50;;;;;;;;5085666;28;11590;-79
2022/01/19 11:36:03;;;;;;;;;42.75;39.50;;;;;;;;5086776;28;11562;-84
2022/01/19 11:38:41;;;;;;;;;48.75;41.25;;;;;;;;5091969;28;11640;-84
2022/01/19 11:41:40;;;;;;;;;36.75;35.75;;;;;;;;5083716;28;11035;-84
2022/01/19 11:44:13;;;;;;;;;45.75;36.00;;;;;;;;5072475;28;11570;-81
2022/01/19 11:46:43;;;;;;;;;43.25;40.00;;;;;;;;5085836;28;11512;-85
2022/01/19 11:49:15;;;;;;;;;52.50;43.25;;;;;;;;5083263;28;12320;-84
2022/01/19 11:51:45;;;;;;;;;43.75;38.50;;;;;;;;5083447;28;11703;-80
2022/01/19 11:54:16;;;;;;;;;59.25;46.50;;;;;;;;5078425;28;11548;-84
2022/01/19 11:57:06;;;;;;;;;55.50;43.75;;;;;;;;5083551;28;11555;-82
2022/01/19 11:59:56;;;;;;;;;43.75;40.00;;;;;;;;5081363;28;11528;-81
2022/01/19 12:02:36;;;;;;;;;48.50;43.25;;;;;;;;5064031;28;11473;-84
2022/01/19 12:05:17;;;;;;;;;51.25;42.50;;;;;;;;5083972;28;11668;-75
2022/01/19 12:07:48;;;;;;;;;59.50;45.75;;;;;;;;5064835;28;11729;-80
2022/01/19 12:10:19;;;;;;;;;56.25;40.75;;;;;;;;5083448;28;11563;-76
2022/01/19 12:12:57;;;;;;;;;48.00;40.25;;;;;;;;5082782;28;12275;-74
2022/01/19 12:15:53;;;;;;;;;62.75;47.75;;;;;;;;5084172;28;12489;-74
2022/01/19 12:18:43;;;;;;;;;53.25;45.00;;;;;;;;5087650;28;11550;-77
2022/01/19 12:21:14;;;;;;;;;55.00;46.25;;;;;;;;5082054;28;11524;-79
2022/01/19 12:23:43;;;;;;;;;40.00;39.00;;;;;;;;5087482;28;11538;-85
2022/01/19 12:26:11;;;;;;;;;51.50;46.00;;;;;;;;5088743;28;11534;-80
2022/01/19 12:28:44;;;;;;;;;57.75;44.50;;;;;;;;5085681;28;11628;-84
2022/01/19 12:31:34;;;;;;;;;53.50;44.50;;;;;;;;5085325;28;11499;-81
2022/01/19 12:34:21;;;;;;;;;49.75;43.25;;;;;;;;5085974;28;12428;-80
2022/01/19 12:36:54;;;;;;;;;54.50;45.00;;;;;;;;5088603;28;11587;-82
2022/01/19 12:39:39;;;;;;;;;55.25;45.00;;;;;;;;5087113;28;11549;-79
2022/01/19 12:42:13;;;;;;;;;47.25;43.00;;;;;;;;5079416;28;11559;-81
2022/01/19 12:44:50;;;;;;;;;42.25;40.25;;;;;;;;5086749;28;11676;-86
2022/01/19 12:47:46;;;;;;;;;60.50;51.25;;;;;;;;5085675;28;11587;-85
2022/01/19 12:50:36;;;;;;;;;55.50;46.50;;;;;;;;5077361;28;11566;-82
2022/01/19 12:53:11;;;;;;;;;56.50;46.75;;;;;;;;5087874;28;11531;-85
2022/01/19 12:55:41;;;;;;;;;65.75;51.75;;;;;;;;5086688;28;11591;-81
2022/01/19 12:58:16;;;;;;;;;62.25;49.50;;;;;;;;5089007;28;11554;-83
2022/01/19 13:00:48;;;;;;;;;61.50;47.75;;;;;;;;5087168;28;12315;-80
2022/01/19 13:03:20;;;;;;;;;63.00;49.50;;;;;;;;5088164;28;12197;-82
2022/01/19 13:05:50;;;;;;;;;62.75;47.50;;;;;;;;5087455;28;11590;-76
2022/01/19 13:08:28;;;;;;;;;69.25;53.25;;;;;;;;5093595;28;11525;-82
2022/01/19 13:11:03;;;;;;;;;60.50;51.00;;;;;;;;5068644;28;11570;-81
2022/01/19 13:13:30;;;;;;;;;53.50;45.50;;;;;;;;5091358;28;11560;-80
2022/01/19 13:16:00;;;;;;;;;66.00;53.75;;;;;;;;5081883;28;11561;-82
2022/01/19 13:18:33;;;;;;;;;56.75;45.25;;;;;;;;5084037;28;11572;-81
2022/01/19 13:21:04;;;;;;;;;61.25;48.00;;;;;;;;5083919;28;11648;-80
2022/01/19 13:23:35;;;;;;;;;51.25;45.00;;;;;;;;5074619;28;12357;-81
2022/01/19 13:26:06;;;;;;;;;56.00;46.75;;;;;;;;5098495;28;11670;-80
2022/01/19 13:28:36;;;;;;;;;64.25;51.50;;;;;;;;5085014;28;11527;-82
2022/01/19 13:31:13;;;;;;;;;60.75;51.25;;;;;;;;5083223;28;11617;-81
2022/01/19 13:33:41;;;;;;;;;62.00;51.50;;;;;;;;5084894;28;11589;-81
2022/01/19 13:36:09;;;;;;;;;60.75;50.00;;;;;;;;5065550;28;11595;-79
2022/01/19 13:38:39;;;;;;;;;5.00;0.00;;;;;;;;5084532;28;11544;-79
2022/01/19 13:41:10;;;;;;;;;59.50;47.00;;;;;;;;5081898;28;11470;-79
2022/01/19 13:43:39;;;;;;;;;70.25;52.25;;;;;;;;5085785;28;11574;-80
2022/01/19 13:46:15;;;;;;;;;64.50;51.00;;;;;;;;5079389;28;13082;-78
2022/01/19 13:48:47;;;;;;;;;64.75;51.75;;;;;;;;5082113;28;11674;-78
2022/01/19 13:51:15;;;;;;;;;71.25;55.50;;;;;;;;5082379;28;11537;-76
2022/01/19 13:53:51;;;;;;;;;64.75;54.00;;;;;;;;5082654;28;11653;-76
2022/01/19 13:56:25;;;;;;;;;64.75;53.00;;;;;;;;5087103;28;11549;-82
2022/01/19 13:58:58;;;;;;;;;66.75;55.00;;;;;;;;5085106;28;11570;-79
2022/01/19 14:01:36;;;;;;;;;69.25;55.00;;;;;;;;5088429;28;11484;-87
2022/01/19 14:04:08;;;;;;;;;66.50;54.00;;;;;;;;5086901;28;11553;-77
2022/01/19 14:06:38;;;;;;;;;73.00;53.25;;;;;;;;5083454;28;11650;-74
2022/01/19 14:09:19;;;;;;;;;71.00;56.50;;;;;;;;5084603;28;12307;-77
2022/01/19 14:11:49;;;;;;;;;67.25;53.25;;;;;;;;5071390;28;11562;-76
2022/01/19 14:14:25;;;;;;;;;67.25;55.75;;;;;;;;5081007;28;12386;-77
2022/01/19 14:16:55;;;;;;;;;63.75;50.00;;;;;;;;5074774;28;11533;-79
2022/01/19 14:19:25;;;;;;;;;68.50;53.75;;;;;;;;5082329;28;11628;-77
2022/01/19 14:21:58;;;;;;;;;52.00;44.75;;;;;;;;5084328;28;11563;-79
2022/01/19 14:24:28;;;;;;;;;57.50;47.75;;;;;;;;5079534;28;11645;-79
2022/01/19 14:26:58;;;;;;;;;65.00;51.00;;;;;;;;5076504;28;11554;-81
2022/01/19 14:29:26;;;;;;;;;61.75;50.25;;;;;;;;5088806;28;11545;-80
2022/01/19 14:31:55;;;;;;;;;58.00;47.75;;;;;;;;5078860;28;11515;-79
2022/01/19 14:34:37;;;;;;;;;53.50;45.25;;;;;;;;5096020;28;12114;-80
2022/01/19 14:37:11;;;;;;;;;65.00;51.75;;;;;;;;5081039;28;11545;-76
2022/01/19 14:40:07;;;;;;;;;56.50;45.75;;;;;;;;5084982;28;11596;-80
2022/01/19 14:42:38;;;;;;;;;59.50;47.50;;;;;;;;5067706;28;11549;-80
2022/01/19 14:45:23;;;;;;;;;58.75;46.25;;;;;;;;5065322;28;12357;-79
2022/01/19 14:47:52;;;;;;;;;63.50;46.50;;;;;;;;5085579;28;11541;-80
2022/01/19 14:50:22;;;;;;;;;46.50;41.25;;;;;;;;5083558;28;11543;-73
2022/01/19 14:52:52;;;;;;;;;39.25;36.75;;;;;;;;5084410;28;11696;-79
2022/01/19 14:55:23;;;;;;;;;61.50;46.50;;;;;;;;5082795;28;11629;-74
2022/01/19 14:57:50;;;;;;;;;36.25;35.75;;;;;;;;5085454;28;11615;-80
2022/01/19 15:00:20;;;;;;;;;59.25;47.50;;;;;;;;5082239;27;11556;-79
2022/01/19 15:02:49;;;;;;;;;60.00;47.75;;;;;;;;5073928;28;11547;-85
2022/01/19 15:05:18;;;;;;;;;36.25;35.25;;;;;;;;5083429;28;11631;-81
2022/01/19 15:07:46;;;;;;;;;53.50;44.00;;;;;;;;5082627;28;11531;-79
2022/01/19 15:10:15;;;;;;;;;40.50;35.75;;;;;;;;5084569;28;11649;-76
2022/01/19 15:12:45;;;;;;;;;47.00;41.50;;;;;;;;5082984;28;11671;-77
2022/01/19 15:15:13;;;;;;;;;40.50;34.00;;;;;;;;5081702;28;11605;-79
2022/01/19 15:17:40;;;;;;;;;49.00;41.00;;;;;;;;5083205;28;11641;-81
2022/01/19 15:20:09;;;;;;;;;31.50;27.50;;;;;;;;5083355;28;12323;-75
2022/01/19 15:22:36;;;;;;;;;43.75;40.25;;;;;;;;5094987;28;11524;-77
2022/01/19 15:25:05;;;;;;;;;43.00;40.25;;;;;;;;5087634;28;11547;-79
2022/01/19 15:27:33;;;;;;;;;49.25;40.25;;;;;;;;5083179;28;11579;-79
2022/01/19 15:30:05;;;;;;;;;40.25;36.75;;;;;;;;5080691;28;12423;-80
2022/01/19 15:32:32;;;;;;;;;50.50;41.50;;;;;;;;5081577;28;11548;-77
2022/01/19 15:35:00;;;;;;;;;46.75;41.00;;;;;;;;5081424;28;14294;-79
2022/01/19 15:37:27;;;;;;;;;51.25;44.75;;;;;;;;5085858;28;11549;-80
2022/01/19 15:39:56;;;;;;;;;40.75;39.75;;;;;;;;5082628;28;11566;-77
2022/01/19 15:42:23;;;;;;;;;43.00;35.25;;;;;;;;5080808;28;11552;-78
2022/01/19 15:44:51;;;;;;;;;53.50;43.50;;;;;;;;5081157;28;11542;-76
2022/01/19 15:47:19;;;;;;;;;36.50;33.00;;;;;;;;5079418;28;11567;-80
2022/01/19 15:49:47;;;;;;;;;36.50;33.75;;;;;;;;5082108;28;11536;-81
2022/01/19 15:52:15;;;;;;;;;34.75;26.50;;;;;;;;5080874;28;11564;-78
2022/01/19 15:54:47;;;;;;;;;35.00;32.75;;;;;;;;5083302;28;11574;-71
2022/01/19 15:57:14;;;;;;;;;37.50;37.00;;;;;;;;5080829;28;12058;-80
2022/01/19 15:59:41;;;;;;;;;41.00;33.25;;;;;;;;5083066;28;11560;-78
2022/01/19 16:02:09;;;;;;;;;37.50;33.25;;;;;;;;5080440;28;11508;-77
2022/01/19 16:04:38;;;;;;;;;42.50;32.50;;;;;;;;5065116;28;11588;-81
2022/01/19 16:07:05;;;;;;;;;36.00;34.00;;;;;;;;5078652;28;11529;-73
2022/01/19 16:09:33;;;;;;;;;38.00;37.50;;;;;;;;5078624;28;11527;-73